createdAt,value
2017-09-25T00:01:13.994Z,11.80
2017-09-25T00:03:42.267Z,11.80
2017-09-25T00:06:11.180Z,11.80
2017-09-25T00:08:38.726Z,11.80
2017-09-25T00:11:06.250Z,11.80
2017-09-25T00:13:33.851Z,11.80
2017-09-25T00:16:01.374Z,11.80
2017-09-25T00:18:28.974Z,11.80
2017-09-25T00:20:57.408Z,11.80
2017-09-25T00:23:24.916Z,11.80
2017-09-25T00:25:52.418Z,11.80
2017-09-25T00:28:20.698Z,11.80
2017-09-25T00:30:48.204Z,11.80
2017-09-25T00:33:15.727Z,11.80
2017-09-25T00:35:43.999Z,11.80
2017-09-25T00:38:12.259Z,11.80
2017-09-25T00:40:39.767Z,11.80
2017-09-25T00:43:07.291Z,11.80
2017-09-25T00:45:35.571Z,11.70
2017-09-25T00:48:03.864Z,11.70
2017-09-25T00:50:32.137Z,11.60
2017-09-25T00:53:12.330Z,11.50
2017-09-25T00:55:50.817Z,11.50
2017-09-25T00:58:18.443Z,11.50
2017-09-25T01:00:57.786Z,11.50
2017-09-25T01:03:35.739Z,11.60
2017-09-25T01:06:15.373Z,11.60
2017-09-25T01:08:42.899Z,11.60
2017-09-25T01:11:11.170Z,11.60
2017-09-25T01:13:39.458Z,11.60
2017-09-25T01:16:07.749Z,11.60
2017-09-25T01:18:35.270Z,11.50
2017-09-25T01:21:02.872Z,11.50
2017-09-25T01:23:30.422Z,11.50
2017-09-25T01:25:58.034Z,11.50
2017-09-25T01:28:25.543Z,11.50
2017-09-25T01:30:53.067Z,11.50
2017-09-25T01:33:20.575Z,11.40
2017-09-25T01:35:48.095Z,11.40
2017-09-25T01:38:16.435Z,11.40
2017-09-25T01:40:44.065Z,11.40
2017-09-25T01:43:11.577Z,11.30
2017-09-25T01:45:39.102Z,11.20
2017-09-25T01:48:06.603Z,11.10
2017-09-25T01:50:34.891Z,11.20
2017-09-25T01:53:03.162Z,11.10
2017-09-25T01:55:31.452Z,11.20
2017-09-25T01:57:58.963Z,11.10
2017-09-25T02:00:26.486Z,11.20
2017-09-25T02:02:54.087Z,11.20
2017-09-25T02:05:22.375Z,11.20
2017-09-25T02:07:50.646Z,11.20
2017-09-25T02:10:18.148Z,11.20
2017-09-25T02:12:45.666Z,11.20
2017-09-25T02:15:13.257Z,11.20
2017-09-25T02:17:40.781Z,11.20
2017-09-25T02:20:09.109Z,11.20
2017-09-25T02:22:36.635Z,11.20
2017-09-25T02:25:04.910Z,11.00
2017-09-25T02:27:33.303Z,11.00
2017-09-25T02:30:00.811Z,11.00
2017-09-25T02:32:28.335Z,11.10
2017-09-25T02:34:55.835Z,11.00
2017-09-25T02:37:23.359Z,10.70
2017-09-25T02:39:51.563Z,10.60
2017-09-25T02:42:19.088Z,10.60
2017-09-25T02:44:46.596Z,10.70
2017-09-25T02:47:14.963Z,10.60
2017-09-25T02:49:42.471Z,10.50
2017-09-25T02:52:10.003Z,10.50
2017-09-25T02:54:38.274Z,10.60
2017-09-25T02:57:06.546Z,10.60
2017-09-25T02:59:34.834Z,10.70
2017-09-25T03:02:03.842Z,10.60
2017-09-25T03:04:31.370Z,10.60
2017-09-25T03:06:59.647Z,10.70
2017-09-25T03:09:27.937Z,10.60
2017-09-25T03:11:56.216Z,10.60
2017-09-25T03:14:23.743Z,10.60
2017-09-25T03:16:51.248Z,10.50
2017-09-25T03:19:18.801Z,10.40
2017-09-25T03:21:46.307Z,10.40
2017-09-25T03:24:13.830Z,10.30
2017-09-25T03:26:41.344Z,10.40
2017-09-25T03:29:08.947Z,10.40
2017-09-25T03:31:36.451Z,10.40
2017-09-25T03:34:03.975Z,10.50
2017-09-25T03:36:31.663Z,10.40
2017-09-25T03:38:59.202Z,10.30
2017-09-25T03:41:26.819Z,10.30
2017-09-25T03:43:55.183Z,10.40
2017-09-25T03:46:24.179Z,10.40
2017-09-25T03:48:52.461Z,10.40
2017-09-25T03:51:20.747Z,10.40
2017-09-25T03:53:48.252Z,10.40
2017-09-25T03:56:15.779Z,10.30
2017-09-25T03:58:43.286Z,10.30
2017-09-25T04:01:10.814Z,10.40
2017-09-25T04:03:38.331Z,10.30
2017-09-25T04:06:06.618Z,10.20
2017-09-25T04:08:34.126Z,10.20
2017-09-25T04:11:01.647Z,10.30
2017-09-25T04:13:29.151Z,10.30
2017-09-25T04:15:56.766Z,10.20
2017-09-25T04:18:24.270Z,10.10
2017-09-25T04:20:51.782Z,10.20
2017-09-25T04:23:19.306Z,10.20
2017-09-25T04:25:47.576Z,10.20
2017-09-25T04:28:15.867Z,10.30
2017-09-25T04:30:44.139Z,10.30
2017-09-25T04:33:12.436Z,10.20
2017-09-25T04:35:39.950Z,10.20
2017-09-25T04:38:07.546Z,10.20
2017-09-25T04:40:35.050Z,10.10
2017-09-25T04:43:02.570Z,10.10
2017-09-25T04:45:30.083Z,10.10
2017-09-25T04:47:57.607Z,10.00
2017-09-25T04:50:25.115Z,9.90
2017-09-25T04:52:53.402Z,9.80
2017-09-25T04:55:21.667Z,9.70
2017-09-25T04:57:49.946Z,9.70
2017-09-25T05:00:18.217Z,9.50
2017-09-25T05:02:46.503Z,9.40
2017-09-25T05:05:14.806Z,9.50
2017-09-25T05:07:42.338Z,9.50
2017-09-25T05:10:10.623Z,9.60
2017-09-25T05:12:38.131Z,9.60
2017-09-25T05:15:05.742Z,9.70
2017-09-25T05:17:33.283Z,9.70
2017-09-25T05:20:01.674Z,9.80
2017-09-25T05:22:29.939Z,9.80
2017-09-25T05:24:58.329Z,9.90
2017-09-25T05:27:26.610Z,9.90
2017-09-25T05:29:54.126Z,9.90
2017-09-25T05:32:21.627Z,9.90
2017-09-25T05:34:49.146Z,10.00
2017-09-25T05:37:18.150Z,10.00
2017-09-25T05:39:45.738Z,10.00
2017-09-25T05:42:13.278Z,10.00
2017-09-25T05:44:41.571Z,10.10
2017-09-25T05:47:09.479Z,10.10
2017-09-25T05:49:36.999Z,10.00
2017-09-25T05:52:04.502Z,9.90
2017-09-25T05:54:32.028Z,9.80
2017-09-25T05:56:59.531Z,9.90
2017-09-25T05:59:27.030Z,9.90
2017-09-25T06:01:54.556Z,10.00
2017-09-25T06:04:22.836Z,10.10
2017-09-25T06:06:51.123Z,10.20
2017-09-25T06:09:28.251Z,10.10
2017-09-25T06:11:55.770Z,10.10
2017-09-25T06:14:24.124Z,10.10
2017-09-25T06:16:51.647Z,10.10
2017-09-25T06:19:20.150Z,10.10
2017-09-25T06:21:47.671Z,10.20
2017-09-25T06:24:15.318Z,10.30
2017-09-25T06:26:42.844Z,10.40
2017-09-25T06:29:10.346Z,10.50
2017-09-25T06:31:38.000Z,10.40
2017-09-25T06:34:05.506Z,10.50
2017-09-25T06:36:33.227Z,10.60
2017-09-25T06:39:00.730Z,10.60
2017-09-25T06:41:28.250Z,10.70
2017-09-25T06:43:56.517Z,10.80
2017-09-25T06:46:24.063Z,10.90
2017-09-25T06:48:51.573Z,11.00
2017-09-25T06:51:19.080Z,11.00
2017-09-25T06:53:46.602Z,11.10
2017-09-25T06:56:14.117Z,11.10
2017-09-25T06:58:41.639Z,11.20
2017-09-25T07:01:09.907Z,11.40
2017-09-25T07:03:38.375Z,11.50
2017-09-25T07:06:07.496Z,11.50
2017-09-25T07:08:35.786Z,11.60
2017-09-25T07:11:03.286Z,11.60
2017-09-25T07:13:30.907Z,11.70
2017-09-25T07:15:58.412Z,11.80
2017-09-25T07:18:26.015Z,11.90
2017-09-25T07:20:53.532Z,12.00
2017-09-25T07:23:21.059Z,12.10
2017-09-25T07:25:48.600Z,12.10
2017-09-25T07:28:16.122Z,12.10
2017-09-25T07:30:44.399Z,12.30
2017-09-25T07:33:12.690Z,12.30
2017-09-25T07:35:41.722Z,12.40
2017-09-25T07:38:09.255Z,12.40
2017-09-25T07:40:36.811Z,12.50
2017-09-25T07:43:04.375Z,12.50
2017-09-25T07:45:31.883Z,12.60
2017-09-25T07:47:59.400Z,12.60
2017-09-25T07:50:26.922Z,12.70
2017-09-25T07:52:55.435Z,12.70
2017-09-25T07:55:22.963Z,12.70
2017-09-25T07:57:51.240Z,12.70
2017-09-25T08:00:19.531Z,12.80
2017-09-25T08:02:47.042Z,12.70
2017-09-25T08:05:14.565Z,12.80
2017-09-25T08:07:42.071Z,12.90
2017-09-25T08:10:09.596Z,12.90
2017-09-25T08:12:37.107Z,13.00
2017-09-25T08:15:05.400Z,13.10
2017-09-25T08:17:32.916Z,13.10
2017-09-25T08:20:01.184Z,13.20
2017-09-25T08:22:28.699Z,13.30
2017-09-25T08:24:56.258Z,13.30
2017-09-25T08:27:24.515Z,13.60
2017-09-25T08:29:52.806Z,13.70
2017-09-25T08:32:20.315Z,13.60
2017-09-25T08:34:47.935Z,13.80
2017-09-25T08:37:15.447Z,14.00
2017-09-25T08:39:43.758Z,14.20
2017-09-25T08:42:12.235Z,14.20
2017-09-25T08:44:40.564Z,14.30
2017-09-25T08:47:08.175Z,14.50
2017-09-25T08:49:35.679Z,14.60
2017-09-25T08:52:03.203Z,14.70
2017-09-25T08:54:30.737Z,14.90
2017-09-25T08:56:59.131Z,15.10
2017-09-25T08:59:26.643Z,15.10
2017-09-25T09:01:54.172Z,15.20
2017-09-25T09:04:21.683Z,15.30
2017-09-25T09:06:49.976Z,15.40
2017-09-25T09:09:17.487Z,15.30
2017-09-25T09:11:45.011Z,15.40
2017-09-25T09:14:12.668Z,15.50
2017-09-25T09:16:40.387Z,15.60
2017-09-25T09:19:08.659Z,15.70
2017-09-25T09:21:36.192Z,15.70
2017-09-25T09:24:03.699Z,15.80
2017-09-25T09:26:32.006Z,15.90
2017-09-25T09:28:59.511Z,15.90
2017-09-25T09:31:27.019Z,16.00
2017-09-25T09:33:54.559Z,16.00
2017-09-25T09:36:22.171Z,16.10
2017-09-25T09:38:49.695Z,16.10
2017-09-25T09:41:17.203Z,16.20
2017-09-25T09:43:44.735Z,16.20
2017-09-25T09:46:12.239Z,16.30
2017-09-25T09:48:39.816Z,16.30
2017-09-25T09:51:07.328Z,16.40
2017-09-25T09:53:34.855Z,16.40
2017-09-25T09:56:02.444Z,16.50
2017-09-25T09:58:29.973Z,16.60
2017-09-25T10:00:57.648Z,16.50
2017-09-25T10:03:25.177Z,16.60
2017-09-25T10:05:52.691Z,16.60
2017-09-25T10:08:20.215Z,16.60
2017-09-25T10:10:47.739Z,16.60
2017-09-25T10:13:16.267Z,16.70
2017-09-25T10:15:44.516Z,16.80
2017-09-25T10:18:12.108Z,16.80
2017-09-25T10:20:39.715Z,16.90
2017-09-25T10:23:07.219Z,17.00
2017-09-25T10:25:35.460Z,17.10
2017-09-25T10:28:03.012Z,17.30
2017-09-25T10:30:30.995Z,17.40
2017-09-25T10:32:58.534Z,17.70
2017-09-25T10:35:26.100Z,18.00
2017-09-25T10:37:53.611Z,18.20
2017-09-25T10:40:21.169Z,18.50
2017-09-25T10:42:48.680Z,18.70
2017-09-25T10:45:17.080Z,18.90
2017-09-25T10:47:44.606Z,19.00
2017-09-25T10:50:12.131Z,18.90
2017-09-25T10:52:39.635Z,18.80
2017-09-25T10:55:07.156Z,18.70
2017-09-25T10:57:35.459Z,18.40
2017-09-25T11:00:02.983Z,18.40
2017-09-25T11:02:30.487Z,18.30
2017-09-25T11:04:58.006Z,18.30
2017-09-25T11:07:26.294Z,18.20
2017-09-25T11:09:54.563Z,18.20
2017-09-25T11:12:22.856Z,18.20
2017-09-25T11:14:51.084Z,18.20
2017-09-25T11:17:19.423Z,18.20
2017-09-25T11:19:46.924Z,18.20
2017-09-25T11:22:14.444Z,18.20
2017-09-25T11:24:41.987Z,18.20
2017-09-25T11:27:09.503Z,18.20
2017-09-25T11:29:37.907Z,18.20
2017-09-25T11:32:06.314Z,18.20
2017-09-25T11:34:33.864Z,18.30
2017-09-25T11:37:01.412Z,18.20
2017-09-25T11:39:28.991Z,18.30
2017-09-25T11:41:56.535Z,18.30
2017-09-25T11:44:24.043Z,18.40
2017-09-25T11:46:51.563Z,18.40
2017-09-25T11:49:19.068Z,18.50
2017-09-25T11:51:46.587Z,18.50
2017-09-25T11:54:14.107Z,18.50
2017-09-25T11:56:42.398Z,18.60
2017-09-25T11:59:09.907Z,18.60
2017-09-25T12:01:37.436Z,18.50
2017-09-25T12:04:04.943Z,18.60
2017-09-25T12:06:32.467Z,18.60
2017-09-25T12:09:00.095Z,18.70
2017-09-25T12:11:27.619Z,18.70
2017-09-25T12:13:55.146Z,18.70
2017-09-25T12:16:22.651Z,18.70
2017-09-25T12:18:50.939Z,18.80
2017-09-25T12:21:18.504Z,18.80
2017-09-25T12:23:46.031Z,18.80
2017-09-25T12:26:13.535Z,18.90
2017-09-25T12:28:41.059Z,19.00
2017-09-25T12:31:09.330Z,19.00
2017-09-25T12:33:37.615Z,19.00
2017-09-25T12:36:05.883Z,19.10
2017-09-25T12:38:34.171Z,19.20
2017-09-25T12:41:02.439Z,19.20
2017-09-25T12:43:30.732Z,19.30
2017-09-25T12:45:58.239Z,19.30
2017-09-25T12:48:25.762Z,19.30
2017-09-25T12:50:53.259Z,19.40
2017-09-25T12:53:20.863Z,19.30
2017-09-25T12:55:48.377Z,19.20
2017-09-25T12:58:15.898Z,19.20
2017-09-25T13:00:43.402Z,19.30
2017-09-25T13:03:10.926Z,19.50
2017-09-25T13:05:38.444Z,19.50
2017-09-25T13:08:06.727Z,19.70
2017-09-25T13:10:34.235Z,19.70
2017-09-25T13:13:01.739Z,19.70
2017-09-25T13:15:29.256Z,19.70
2017-09-25T13:17:56.763Z,19.70
2017-09-25T13:20:24.292Z,19.60
2017-09-25T13:22:52.571Z,19.50
2017-09-25T13:25:21.774Z,19.50
2017-09-25T13:27:50.039Z,19.50
2017-09-25T13:30:18.408Z,19.50
2017-09-25T13:32:45.999Z,19.60
2017-09-25T13:35:14.225Z,19.70
2017-09-25T13:37:42.467Z,19.80
2017-09-25T13:40:09.979Z,19.80
2017-09-25T13:42:37.480Z,19.80
2017-09-25T13:45:07.988Z,19.80
2017-09-25T13:47:36.261Z,19.60
2017-09-25T13:50:04.565Z,19.50
2017-09-25T13:52:32.067Z,19.50
2017-09-25T13:54:59.571Z,19.40
2017-09-25T13:57:27.132Z,19.40
2017-09-25T14:02:27.652Z,19.40
2017-09-25T14:04:55.918Z,19.70
2017-09-25T14:07:23.490Z,19.70
2017-09-25T14:09:54.923Z,19.90
2017-09-25T14:12:22.494Z,19.80
2017-09-25T14:14:50.847Z,20.10
2017-09-25T14:17:18.423Z,20.10
2017-09-25T14:19:46.743Z,20.30
2017-09-25T14:22:14.311Z,20.20
2017-09-25T14:24:41.871Z,20.20
2017-09-25T14:27:09.460Z,20.10
2017-09-25T14:29:37.108Z,20.10
2017-09-25T14:32:04.781Z,20.10
2017-09-25T14:34:32.335Z,20.00
2017-09-25T14:36:59.906Z,20.00
2017-09-25T14:39:27.458Z,19.90
2017-09-25T14:41:55.218Z,19.80
2017-09-25T14:44:22.883Z,19.70
2017-09-25T14:46:51.318Z,19.70
2017-09-25T14:49:18.875Z,19.70
2017-09-25T14:51:46.431Z,19.70
2017-09-25T14:54:14.003Z,19.60
2017-09-25T14:56:42.318Z,19.60
2017-09-25T14:59:09.979Z,19.60
2017-09-25T15:01:38.440Z,19.60
2017-09-25T15:04:06.011Z,19.50
2017-09-25T15:06:33.571Z,19.50
2017-09-25T15:09:01.143Z,19.50
2017-09-25T15:11:28.799Z,19.40
2017-09-25T15:13:56.379Z,19.50
2017-09-25T15:16:24.712Z,19.40
2017-09-25T15:18:53.110Z,19.40
2017-09-25T15:21:20.755Z,19.40
2017-09-25T15:23:48.326Z,19.40
2017-09-25T15:26:15.883Z,19.40
2017-09-25T15:28:43.463Z,19.40
2017-09-25T15:31:11.027Z,19.40
2017-09-25T15:33:38.610Z,19.40
2017-09-25T15:36:06.227Z,19.40
2017-09-25T15:38:34.687Z,19.60
2017-09-25T15:41:03.092Z,19.80
2017-09-25T15:43:30.662Z,20.20
2017-09-25T15:45:58.223Z,20.40
2017-09-25T15:48:25.794Z,20.90
2017-09-25T15:50:54.150Z,21.00
2017-09-25T15:53:21.802Z,21.00
2017-09-25T15:55:49.355Z,20.90
2017-09-25T15:58:16.931Z,20.80
2017-09-25T16:00:44.580Z,20.60
2017-09-25T16:03:12.246Z,20.40
2017-09-25T16:05:39.818Z,20.30
2017-09-25T16:08:08.137Z,19.90
2017-09-25T16:10:36.039Z,19.90
2017-09-25T16:13:03.595Z,19.70
2017-09-25T16:15:31.272Z,19.60
2017-09-25T16:17:58.931Z,19.50
2017-09-25T16:20:26.507Z,19.40
2017-09-25T16:22:54.070Z,19.30
2017-09-25T16:25:22.423Z,19.20
2017-09-25T16:27:49.978Z,19.20
2017-09-25T16:30:17.551Z,19.10
2017-09-25T16:32:45.107Z,19.00
2017-09-25T16:35:12.683Z,18.90
2017-09-25T16:37:41.110Z,18.70
2017-09-25T16:40:08.682Z,18.70
2017-09-25T16:42:36.243Z,18.60
2017-09-25T16:45:03.922Z,18.60
2017-09-25T16:47:31.588Z,18.50
2017-09-25T16:49:59.159Z,18.40
2017-09-25T16:52:26.807Z,18.30
2017-09-25T16:54:54.611Z,18.30
2017-09-25T16:57:22.272Z,18.20
2017-09-25T16:59:50.165Z,18.20
2017-09-25T17:02:18.090Z,18.10
2017-09-25T17:04:45.721Z,18.10
2017-09-25T17:07:13.290Z,18.00
2017-09-25T17:09:40.944Z,17.90
2017-09-25T17:12:08.518Z,17.90
2017-09-25T17:14:36.074Z,17.80
2017-09-25T17:17:03.931Z,17.80
2017-09-25T17:19:31.591Z,17.80
2017-09-25T17:21:59.259Z,17.80
2017-09-25T17:24:26.819Z,17.70
2017-09-25T17:26:54.474Z,17.70
2017-09-25T17:29:22.131Z,17.60
2017-09-25T17:31:49.799Z,17.60
2017-09-25T17:34:17.362Z,17.50
2017-09-25T17:36:44.995Z,17.50
2017-09-25T17:39:12.667Z,17.50
2017-09-25T17:41:40.247Z,17.50
2017-09-25T17:44:07.799Z,17.40
2017-09-25T17:46:36.282Z,17.30
2017-09-25T17:49:05.304Z,17.40
2017-09-25T17:51:33.622Z,17.30
2017-09-25T17:54:01.199Z,17.30
2017-09-25T17:56:28.756Z,17.20
2017-09-25T17:58:56.330Z,17.20
2017-09-25T18:01:24.646Z,17.10
2017-09-25T18:03:52.263Z,17.10
2017-09-25T18:06:19.818Z,17.10
2017-09-25T18:08:47.583Z,17.00
2017-09-25T18:11:15.958Z,17.00
2017-09-25T18:13:44.406Z,16.90
2017-09-25T18:16:11.964Z,16.90
2017-09-25T18:18:40.264Z,16.80
2017-09-25T18:21:07.835Z,16.70
2017-09-25T18:23:35.415Z,16.70
2017-09-25T18:26:03.746Z,16.70
2017-09-25T18:28:31.326Z,16.60
2017-09-25T18:30:58.886Z,16.60
2017-09-25T18:33:26.467Z,16.60
2017-09-25T18:35:54.983Z,16.50
2017-09-25T18:38:22.563Z,16.50
2017-09-25T18:40:50.151Z,16.40
2017-09-25T18:43:17.710Z,16.40
2017-09-25T18:45:48.947Z,16.30
2017-09-25T18:48:16.619Z,16.30
2017-09-25T18:50:44.990Z,16.20
2017-09-25T18:53:13.270Z,16.10
2017-09-25T18:55:40.857Z,16.00
2017-09-25T18:58:09.194Z,15.90
2017-09-25T19:00:36.782Z,15.90
2017-09-25T19:03:04.446Z,15.90
2017-09-25T19:05:32.027Z,15.80
2017-09-25T19:07:59.695Z,15.80
2017-09-25T19:10:28.130Z,15.70
2017-09-25T19:12:55.794Z,15.70
2017-09-25T19:15:23.460Z,15.60
2017-09-25T19:17:51.039Z,15.50
2017-09-25T19:20:19.395Z,15.40
2017-09-25T19:22:46.964Z,15.40
2017-09-25T19:25:14.535Z,15.30
2017-09-25T19:27:42.890Z,15.30
2017-09-25T19:30:10.557Z,15.30
2017-09-25T19:32:38.175Z,15.20
2017-09-25T19:35:05.767Z,15.30
2017-09-25T19:37:33.346Z,15.20
2017-09-25T19:40:01.684Z,15.10
2017-09-25T19:42:29.279Z,15.10
2017-09-25T19:44:56.843Z,15.10
2017-09-25T19:47:25.196Z,15.00
2017-09-25T19:49:53.212Z,15.00
2017-09-25T19:52:20.787Z,14.90
2017-09-25T19:54:58.259Z,14.90
2017-09-25T19:57:25.838Z,14.80
2017-09-25T19:59:53.395Z,14.80
2017-09-25T20:02:21.007Z,14.80
2017-09-25T20:04:48.594Z,14.70
2017-09-25T20:07:16.158Z,14.70
2017-09-25T20:09:43.734Z,14.60
2017-09-25T20:12:11.295Z,14.50
2017-09-25T20:27:59.967Z,14.60
2017-09-25T20:30:27.532Z,14.50
2017-09-25T20:32:55.090Z,14.50
2017-09-25T20:35:22.671Z,14.30
2017-09-25T20:37:51.015Z,14.30
2017-09-25T20:40:18.607Z,14.20
2017-09-25T20:42:48.766Z,14.30
2017-09-25T20:45:16.351Z,14.30
2017-09-25T20:47:43.916Z,14.30
2017-09-25T20:50:11.490Z,14.30
2017-09-25T20:52:39.051Z,14.30
2017-09-25T20:55:06.643Z,14.20
2017-09-25T20:57:34.975Z,14.00
2017-09-25T21:00:02.679Z,14.00
2017-09-25T21:02:31.007Z,14.00
2017-09-25T21:04:59.548Z,14.00
2017-09-25T21:07:27.106Z,14.00
2017-09-25T21:09:54.731Z,14.00
2017-09-25T21:12:22.291Z,13.90
2017-09-25T21:14:51.411Z,13.90
2017-09-25T21:17:19.734Z,13.80
2017-09-25T21:19:47.922Z,13.70
2017-09-25T21:22:15.483Z,13.70
2017-09-25T21:24:43.203Z,13.60
2017-09-25T21:27:17.098Z,13.50
2017-09-25T21:29:44.788Z,13.60
2017-09-25T21:32:12.966Z,13.60
2017-09-25T21:34:41.316Z,13.60
2017-09-25T21:37:08.883Z,13.60
2017-09-25T21:39:36.475Z,13.60
2017-09-25T21:42:04.039Z,13.50
2017-09-25T21:44:31.707Z,13.50
2017-09-25T21:46:59.267Z,13.50
2017-09-25T21:49:26.863Z,13.50
2017-09-25T21:51:55.189Z,13.50
2017-09-25T21:54:22.755Z,13.40
2017-09-25T21:56:50.446Z,13.40
2017-09-25T21:59:18.962Z,13.40
2017-09-25T22:01:46.543Z,13.50
2017-09-25T22:04:14.106Z,13.40
2017-09-25T22:06:41.691Z,13.30
2017-09-25T22:09:09.256Z,13.20
2017-09-25T22:11:36.834Z,13.20
2017-09-25T22:14:05.167Z,13.20
2017-09-25T22:16:32.747Z,13.20
2017-09-25T22:19:00.306Z,13.20
2017-09-25T22:21:27.975Z,13.20
2017-09-25T22:23:55.534Z,13.20
2017-09-25T22:26:23.178Z,13.20
2017-09-25T22:28:50.734Z,13.20
2017-09-25T22:31:18.399Z,13.20
2017-09-25T22:33:45.966Z,13.20
2017-09-25T22:36:13.555Z,13.10
2017-09-25T22:38:41.887Z,13.10
2017-09-25T22:41:09.462Z,13.00
2017-09-25T22:57:01.570Z,12.80
2017-09-25T22:59:29.135Z,12.80
2017-09-25T23:01:56.749Z,12.80
2017-09-25T23:04:24.311Z,12.80
2017-09-25T23:06:51.906Z,12.70
2017-09-25T23:09:22.304Z,12.80
2017-09-25T23:11:51.030Z,12.80
2017-09-25T23:14:19.301Z,12.80
2017-09-25T23:16:47.587Z,12.80
2017-09-25T23:19:15.175Z,12.90
2017-09-25T23:21:43.498Z,12.80
2017-09-25T23:24:11.075Z,12.80
2017-09-25T23:26:38.634Z,12.90
2017-09-25T23:29:07.011Z,12.90
2017-09-25T23:45:00.789Z,12.80
2017-09-25T23:47:28.366Z,12.80
2017-09-25T23:49:56.818Z,12.70
2017-09-25T23:52:25.194Z,12.70
2017-09-25T23:54:52.842Z,12.70
2017-09-25T23:57:20.398Z,12.70
2017-09-25T23:59:48.061Z,12.70
